This is the latest recevied weather packets stored in our database for station/object YO6RK-13. If no packets are shown the sender has not sent any weather packets the latest 10 day(s).
| Time | Temp. | Humidity | Pressure | Rain* | Wind** | Luminosity | Snow |
|---|---|---|---|---|---|---|---|
| 1777905019 | 21.11° C | 40% | 1012.6 hPa | 0 mm | - | - | - |
| 1777902623 | 21.11° C | 39% | 1013.1 hPa | 0 mm | - | - | - |
| 1777902330 | 21.11° C | 39% | 1013.1 hPa | 0 mm | - | - | - |
| 1777899031 | 21.67° C | 41% | 1013.5 hPa | 0 mm | - | - | - |
| 1777898430 | 21.11° C | 40% | 1013.7 hPa | 0 mm | - | - | - |
| 1777897218 | 21.67° C | 40% | 1013.8 hPa | 0 mm | - | - | - |
| 1777896642 | 21.11° C | 41% | 1014.1 hPa | 0 mm | - | - | - |
| 1777894838 | 23.33° C | 38% | 1014.3 hPa | 0 mm | - | - | - |
| 1777894529 | 23.33° C | 38% | 1014.3 hPa | 0 mm | - | - | - |
| 1777893937 | 23.33° C | 38% | 1014.4 hPa | 0 mm | - | - | - |
| 1777891215 | 21.67° C | 40% | 1014.8 hPa | 0 mm | - | - | - |
| 1777890914 | 21.67° C | 40% | 1014.9 hPa | 0 mm | - | - | - |
| 1777890630 | 21.67° C | 40% | 1014.9 hPa | 0 mm | - | - | - |
| 1777888533 | 21.11° C | 41% | 1015.3 hPa | 0 mm | - | - | - |
| 1777886112 | 19.44° C | 43% | 1015.7 hPa | 0 mm | - | - | - |
| 1777885812 | 19.44° C | 43% | 1015.7 hPa | 0 mm | - | - | - |
| 1777884323 | 18.89° C | 43% | 1015.7 hPa | 0 mm | - | - | - |
| 1777884013 | 18.33° C | 44% | 1015.8 hPa | 0 mm | - | - | - |
| 1777883713 | 18.33° C | 44% | 1015.8 hPa | 0 mm | - | - | - |
| 1777883124 | 17.78° C | 44% | 1015.7 hPa | 0 mm | - | - | - |
| 1777880134 | 16.67° C | 44% | 1015.9 hPa | 0 mm | - | - | - |
| 1777879824 | 16.67° C | 45% | 1016 hPa | 0 mm | - | - | - |
| 1777870511 | 10° C | 67% | 1016.1 hPa | 0 mm | - | - | - |
| 1777870235 | 9.44° C | 69% | 1016.1 hPa | 0 mm | - | - | - |
| 1777869038 | 7.22° C | 74% | 1016.2 hPa | 0 mm | - | - | - |
* Rain latest hour (hover to see other rain measurements)
** Current wind speed in m/s (hover to see current wind gust speed)